Sao Roque, Brazil
Current Conditions -  °F | °C
As of 5:00 PM on Sunday 25 Jan 2015 (Local Time) from SBSV Reporting Station
Scattered Clouds Scattered Clouds  
Wind Chill: 82°   Ceiling: Unl
Heat Index: 87°   Visibility: 6mi
Dew Point: 72°   Wind: 13mph
Humidity: 70%   Direction: 90°E
Pressure: 29.91"   Gusts: NA
Location:  12.63°S, 40.27°W
Report Text: SBSV 252000Z 09011KT 9999 FEW017 SCT080 28/22 Q1013
Loading
Personal Weather Stations






























Interactive Weather Map New forecast layout! Learn more

10-Day Weather Forecast

Advertisements
Track Severe Weather on mobile